createdAt,value
2019-04-27T00:02:26.637Z,9.73
2019-04-27T00:05:03.711Z,7.47
2019-04-27T00:07:56.271Z,5.25
2019-04-27T00:10:46.860Z,5.92
2019-04-27T00:13:17.234Z,4.72
2019-04-27T00:15:56.233Z,6.17
2019-04-27T00:18:49.501Z,6.08
2019-04-27T00:21:29.307Z,7.58
2019-04-27T00:23:59.602Z,6.87
2019-04-27T00:26:30.522Z,9.43
2019-04-27T00:29:01.132Z,10.98
2019-04-27T00:31:33.665Z,10.08
2019-04-27T00:34:04.423Z,12.85
2019-04-27T00:37:03.597Z,14.85
2019-04-27T00:39:48.371Z,20.05
2019-04-27T00:42:18.805Z,17.25
2019-04-27T00:44:49.124Z,19.35
2019-04-27T00:47:19.636Z,19.70
2019-04-27T00:49:49.908Z,22.15
2019-04-27T00:52:20.243Z,23.87
2019-04-27T00:54:50.779Z,22.60
2019-04-27T00:57:53.620Z,22.45
2019-04-27T01:00:47.604Z,20.65
2019-04-27T01:03:29.630Z,23.15
2019-04-27T01:06:00.212Z,20.17
2019-04-27T01:08:30.683Z,22.30
2019-04-27T01:11:02.889Z,26.70
2019-04-27T01:13:34.995Z,23.62
2019-04-27T01:16:05.556Z,26.48
2019-04-27T01:18:35.726Z,21.65
2019-04-27T01:21:06.431Z,22.90
2019-04-27T01:23:38.533Z,20.70
2019-04-27T01:26:44.994Z,23.25
2019-04-27T01:29:19.223Z,24.40
2019-04-27T01:31:50.072Z,23.30
2019-04-27T01:34:21.995Z,22.73
2019-04-27T01:37:44.316Z,29.20
2019-04-27T01:40:15.346Z,24.50
2019-04-27T01:42:45.659Z,23.57
2019-04-27T01:45:16.334Z,28.92
2019-04-27T01:47:49.283Z,23.52
2019-04-27T01:50:20.127Z,23.70
2019-04-27T01:52:50.406Z,25.10
2019-04-27T01:55:21.279Z,22.60
2019-04-27T01:57:51.681Z,26.42
2019-04-27T02:01:00.189Z,24.55
2019-04-27T02:03:54.941Z,24.72
2019-04-27T02:06:26.883Z,23.57
2019-04-27T02:08:57.234Z,26.35
2019-04-27T02:11:28.738Z,25.62
2019-04-27T02:13:59.736Z,25.97
2019-04-27T02:16:31.146Z,23.57
2019-04-27T02:19:01.509Z,25.70
2019-04-27T02:21:32.227Z,25.55
2019-04-27T02:24:02.546Z,25.82
2019-04-27T02:26:32.912Z,29.72
2019-04-27T02:29:40.919Z,27.80
2019-04-27T02:32:29.220Z,25.35
2019-04-27T02:35:02.439Z,26.40
2019-04-27T02:37:32.829Z,23.98
2019-04-27T02:40:03.099Z,28.05
2019-04-27T02:42:42.451Z,26.12
2019-04-27T02:45:14.320Z,28.00
2019-04-27T02:47:49.041Z,24.63
2019-04-27T02:50:23.878Z,26.97
2019-04-27T02:52:59.897Z,24.37
2019-04-27T02:55:29.620Z,27.55
2019-04-27T02:58:00.032Z,25.97
2019-04-27T03:00:31.921Z,28.85
2019-04-27T03:03:09.981Z,28.80
2019-04-27T03:05:40.115Z,27.77
2019-04-27T03:08:10.986Z,27.30
2019-04-27T03:10:42.243Z,25.02
2019-04-27T03:13:24.573Z,29.15
2019-04-27T03:16:13.404Z,27.15
2019-04-27T03:18:50.751Z,25.88
2019-04-27T03:21:24.576Z,26.37
2019-04-27T03:23:54.973Z,31.15
2019-04-27T03:26:33.310Z,29.20
2019-04-27T03:29:03.602Z,27.60
2019-04-27T03:31:33.906Z,25.52
2019-04-27T03:34:05.788Z,27.80
2019-04-27T03:36:36.437Z,28.50
2019-04-27T03:39:10.151Z,29.05
2019-04-27T03:44:12.168Z,26.55
2019-04-27T03:46:42.504Z,27.22
2019-04-27T03:49:27.953Z,26.95
2019-04-27T03:51:55.270Z,19.42
2019-04-27T03:54:32.352Z,28.55
2019-04-27T03:57:16.183Z,27.13
2019-04-27T04:00:00.165Z,24.72
2019-04-27T04:02:31.092Z,26.55
2019-04-27T04:05:01.435Z,24.75
2019-04-27T04:07:31.851Z,29.18
2019-04-27T04:10:02.595Z,26.50
2019-04-27T04:12:40.868Z,25.17
2019-04-27T04:15:19.961Z,23.07
2019-04-27T04:17:49.737Z,26.65
2019-04-27T04:20:20.318Z,26.37
2019-04-27T04:22:51.565Z,25.25
2019-04-27T04:25:22.038Z,25.90
2019-04-27T04:27:55.221Z,24.40
2019-04-27T04:30:26.945Z,26.33
2019-04-27T04:32:59.683Z,29.20
2019-04-27T04:35:32.532Z,29.60
2019-04-27T04:38:02.272Z,29.95
2019-04-27T04:40:47.563Z,25.82
2019-04-27T04:43:41.735Z,25.82
2019-04-27T04:46:36.904Z,26.60
2019-04-27T04:49:09.408Z,25.72
2019-04-27T04:51:40.286Z,25.57
2019-04-27T04:54:11.867Z,26.57
2019-04-27T04:56:42.811Z,24.12
2019-04-27T04:59:13.157Z,22.98
2019-04-27T05:01:43.498Z,24.30
2019-04-27T05:04:13.841Z,24.80
2019-04-27T05:06:44.494Z,24.20
2019-04-27T05:09:15.278Z,22.13
2019-04-27T05:11:45.691Z,21.55
2019-04-27T05:14:15.958Z,21.80
2019-04-27T05:16:46.209Z,20.37
2019-04-27T05:19:18.749Z,20.15
2019-04-27T05:21:49.286Z,16.90
2019-04-27T05:24:19.605Z,21.20
2019-04-27T05:26:50.289Z,17.73
2019-04-27T05:29:20.712Z,17.87
2019-04-27T05:31:51.031Z,15.53
2019-04-27T05:34:21.433Z,15.70
2019-04-27T05:36:52.616Z,16.70
2019-04-27T05:39:24.911Z,12.93
2019-04-27T05:41:55.837Z,13.95
2019-04-27T05:44:45.663Z,13.43
2019-04-27T05:47:34.575Z,11.88
2019-04-27T05:50:13.480Z,12.20
2019-04-27T05:52:43.197Z,11.83
2019-04-27T05:55:13.584Z,13.08
2019-04-27T05:57:43.930Z,12.88
2019-04-27T06:00:19.149Z,12.98
2019-04-27T06:02:49.778Z,12.90
2019-04-27T06:05:22.720Z,17.20
2019-04-27T06:07:52.840Z,14.07
2019-04-27T06:10:23.496Z,19.20
2019-04-27T06:12:54.978Z,12.58
2019-04-27T06:15:25.283Z,12.45
2019-04-27T06:17:55.588Z,13.18
2019-04-27T06:20:26.590Z,13.53
2019-04-27T06:22:58.728Z,12.88
2019-04-27T06:25:30.656Z,12.60
2019-04-27T06:28:01.554Z,13.98
2019-04-27T06:30:32.141Z,16.40
2019-04-27T06:33:02.486Z,12.75
2019-04-27T06:35:32.838Z,13.58
2019-04-27T06:38:05.067Z,14.65
2019-04-27T06:40:35.611Z,14.90
2019-04-27T06:43:06.163Z,14.23
2019-04-27T06:45:36.582Z,11.15
2019-04-27T06:48:06.830Z,12.40
2019-04-27T06:50:38.971Z,11.20
2019-04-27T06:53:09.723Z,10.40
2019-04-27T06:55:40.109Z,11.18
2019-04-27T06:58:10.454Z,8.03
2019-04-27T07:00:40.845Z,7.75
2019-04-27T07:03:11.399Z,8.43
2019-04-27T07:05:41.722Z,9.30
2019-04-27T07:08:12.052Z,5.75
2019-04-27T07:10:42.413Z,6.62
2019-04-27T07:13:12.708Z,21.27
2019-04-27T07:15:44.565Z,12.03
2019-04-27T07:18:15.289Z,6.78
2019-04-27T07:20:45.487Z,4.58
2019-04-27T07:23:15.997Z,25.27
2019-04-27T07:25:46.237Z,27.65
2019-04-27T07:28:16.625Z,9.95
2019-04-27T07:30:48.760Z,3.60
2019-04-27T07:33:19.197Z,34.63
2019-04-27T07:35:49.612Z,3.37
2019-04-27T07:38:20.110Z,7.67
2019-04-27T07:40:50.682Z,5.25
2019-04-27T07:43:32.780Z,9.33
2019-04-27T07:46:03.272Z,8.00
2019-04-27T07:48:33.768Z,4.78
2019-04-27T07:51:06.141Z,7.37
2019-04-27T07:53:36.788Z,39.60
2019-04-27T07:56:07.094Z,4.72
2019-04-27T07:58:39.588Z,6.05
2019-04-27T08:01:12.017Z,5.92
2019-04-27T08:03:42.474Z,4.97
2019-04-27T08:06:13.473Z,5.95
2019-04-27T08:08:44.537Z,5.62
2019-04-27T08:11:14.976Z,5.05
2019-04-27T08:13:45.522Z,5.30
2019-04-27T08:16:16.065Z,7.55
2019-04-27T08:18:46.351Z,4.17
2019-04-27T08:21:16.769Z,4.67
2019-04-27T08:23:48.895Z,8.00
2019-04-27T08:26:26.346Z,5.67
2019-04-27T08:29:14.208Z,4.58
2019-04-27T08:31:49.751Z,8.90
2019-04-27T08:34:32.781Z,5.08
2019-04-27T08:37:04.452Z,6.12
2019-04-27T08:39:35.468Z,6.25
2019-04-27T08:42:09.392Z,5.80
2019-04-27T08:47:10.130Z,10.13
2019-04-27T08:49:59.636Z,5.05
2019-04-27T08:52:30.124Z,6.33
2019-04-27T08:55:00.648Z,6.70
2019-04-27T08:57:30.845Z,5.08
2019-04-27T09:00:01.125Z,5.85
2019-04-27T09:02:41.533Z,4.47
2019-04-27T09:05:04.450Z,5.20
2019-04-27T09:07:59.792Z,5.30
2019-04-27T09:10:40.825Z,5.00
2019-04-27T09:13:20.455Z,5.30
2019-04-27T09:15:55.540Z,6.65
2019-04-27T09:18:32.333Z,5.65
2019-04-27T09:21:02.475Z,6.35
2019-04-27T09:23:32.870Z,4.83
2019-04-27T09:26:03.241Z,6.55
2019-04-27T09:28:33.784Z,6.45
2019-04-27T09:31:04.243Z,5.05
2019-04-27T09:33:34.589Z,8.05
2019-04-27T09:36:06.135Z,5.40
2019-04-27T09:38:36.465Z,7.08
2019-04-27T09:41:07.307Z,6.78
2019-04-27T09:43:38.698Z,5.28
2019-04-27T09:46:08.968Z,7.15
2019-04-27T09:48:39.308Z,5.95
2019-04-27T09:51:09.930Z,10.00
2019-04-27T09:53:40.287Z,10.95
2019-04-27T09:56:11.002Z,7.85
2019-04-27T09:58:41.366Z,5.25
2019-04-27T10:01:11.809Z,6.25
2019-04-27T10:03:42.424Z,5.78
2019-04-27T10:06:13.020Z,5.97
2019-04-27T10:08:43.134Z,4.58
2019-04-27T10:11:13.463Z,6.45
2019-04-27T10:13:43.692Z,6.12
2019-04-27T10:16:13.939Z,6.42
2019-04-27T10:18:45.853Z,4.78
2019-04-27T10:21:16.363Z,4.92
2019-04-27T10:23:47.090Z,4.80
2019-04-27T10:26:17.501Z,4.55
2019-04-27T10:28:47.712Z,4.37
2019-04-27T10:31:18.134Z,4.30
2019-04-27T10:33:48.479Z,6.78
2019-04-27T10:36:37.713Z,5.47
2019-04-27T10:39:13.482Z,6.40
2019-04-27T10:41:46.310Z,5.42
2019-04-27T10:44:17.145Z,9.85
2019-04-27T10:46:47.472Z,9.15
2019-04-27T10:49:17.819Z,4.80
2019-04-27T10:51:48.039Z,7.50
2019-04-27T10:54:18.446Z,5.60
2019-04-27T10:56:48.772Z,7.87
2019-04-27T10:59:19.029Z,4.67
2019-04-27T11:01:49.391Z,4.90
2019-04-27T11:04:56.704Z,6.08
2019-04-27T11:07:31.740Z,5.20
2019-04-27T11:10:01.904Z,3.77
2019-04-27T11:12:32.163Z,4.53
2019-04-27T11:15:02.648Z,3.87
2019-04-27T11:17:33.288Z,4.37
2019-04-27T11:20:03.858Z,5.58
2019-04-27T11:22:34.137Z,4.40
2019-04-27T11:25:06.189Z,8.18
2019-04-27T11:27:36.579Z,5.70
2019-04-27T11:30:08.547Z,6.08
2019-04-27T11:32:38.820Z,6.60
2019-04-27T11:35:37.112Z,7.60
2019-04-27T11:38:07.609Z,6.50
2019-04-27T11:40:38.399Z,7.28
2019-04-27T11:43:08.857Z,10.13
2019-04-27T11:45:39.086Z,6.50
2019-04-27T11:48:09.455Z,4.90
2019-04-27T11:50:39.710Z,5.95
2019-04-27T11:53:19.905Z,4.97
2019-04-27T11:55:42.174Z,4.37
2019-04-27T11:58:12.495Z,4.53
2019-04-27T12:00:43.128Z,6.72
2019-04-27T12:03:13.421Z,10.78
2019-04-27T12:05:43.747Z,6.83
2019-04-27T12:08:13.976Z,7.17
2019-04-27T12:10:46.431Z,4.90
2019-04-27T12:13:17.005Z,4.90
2019-04-27T12:15:47.267Z,6.37
2019-04-27T12:18:17.853Z,4.90
2019-04-27T12:20:48.210Z,5.20
2019-04-27T12:23:18.451Z,6.72
2019-04-27T12:25:48.696Z,8.10
2019-04-27T12:28:27.678Z,4.95
2019-04-27T12:31:23.300Z,5.80
2019-04-27T12:33:53.720Z,5.75
2019-04-27T12:36:25.696Z,4.37
2019-04-27T12:38:56.701Z,4.17
2019-04-27T12:41:26.925Z,4.80
2019-04-27T12:43:57.360Z,7.42
2019-04-27T12:46:27.761Z,4.10
2019-04-27T12:48:58.424Z,5.62
2019-04-27T12:51:28.787Z,3.72
2019-04-27T12:54:05.960Z,2.37
2019-04-27T12:56:58.374Z,4.67
2019-04-27T12:59:46.705Z,3.33
2019-04-27T13:02:18.286Z,3.27
2019-04-27T13:04:48.747Z,3.37
2019-04-27T13:07:19.059Z,2.70
2019-04-27T13:09:49.404Z,2.47
2019-04-27T13:12:19.790Z,2.25
2019-04-27T13:14:52.241Z,3.22
2019-04-27T13:17:22.660Z,3.67
2019-04-27T13:19:53.089Z,4.65
2019-04-27T13:22:23.441Z,2.80
2019-04-27T13:24:53.765Z,4.97
2019-04-27T13:27:24.221Z,4.45
2019-04-27T13:29:55.666Z,3.10
2019-04-27T13:32:26.665Z,6.92
2019-04-27T13:34:56.877Z,0.42
2019-04-27T13:37:39.115Z,1.75
2019-04-27T13:40:10.904Z,2.10
2019-04-27T13:42:46.860Z,0.68
2019-04-27T13:45:26.645Z,0.55
2019-04-27T13:48:16.237Z,1.62
2019-04-27T13:50:50.018Z,3.05
2019-04-27T13:55:49.880Z,3.67
2019-04-27T13:58:20.402Z,1.52
2019-04-27T14:00:50.946Z,3.80
2019-04-27T14:03:21.384Z,2.65
2019-04-27T14:05:54.526Z,1.35
2019-04-27T14:08:24.976Z,1.37
2019-04-27T14:10:55.255Z,2.55
2019-04-27T14:13:25.832Z,2.58
2019-04-27T14:15:56.194Z,1.10
2019-04-27T14:18:26.516Z,1.75
2019-04-27T14:20:56.776Z,1.50
2019-04-27T14:23:28.746Z,5.83
2019-04-27T14:26:00.394Z,1.85
2019-04-27T14:28:30.848Z,6.20
2019-04-27T14:31:01.147Z,2.17
2019-04-27T14:33:31.434Z,6.78
2019-04-27T14:36:01.683Z,2.85
2019-04-27T14:38:31.976Z,1.82
2019-04-27T14:41:02.519Z,3.05
2019-04-27T14:43:32.752Z,5.12
2019-04-27T14:46:03.074Z,2.95
2019-04-27T14:48:33.255Z,4.58
2019-04-27T14:51:09.673Z,4.17
2019-04-27T14:53:39.941Z,1.42
2019-04-27T14:56:10.124Z,4.15
2019-04-27T14:58:40.444Z,2.80
2019-04-27T15:01:11.232Z,3.65
2019-04-27T15:03:43.698Z,5.97
2019-04-27T15:06:17.497Z,2.35
2019-04-27T15:08:55.656Z,4.20
2019-04-27T15:11:42.742Z,1.95
2019-04-27T15:14:20.766Z,1.40
2019-04-27T15:17:01.574Z,3.90
2019-04-27T15:19:43.010Z,2.55
2019-04-27T15:22:23.375Z,1.60
2019-04-27T15:25:09.088Z,2.22
2019-04-27T15:30:29.779Z,2.05
2019-04-27T15:33:25.139Z,2.43
2019-04-27T15:36:03.014Z,1.17
2019-04-27T15:38:35.444Z,1.65
2019-04-27T15:41:15.432Z,1.67
2019-04-27T15:43:48.537Z,4.12
2019-04-27T15:46:18.659Z,3.17
2019-04-27T15:48:48.919Z,3.27
2019-04-27T15:51:21.193Z,4.05
2019-04-27T15:53:53.925Z,1.52
2019-04-27T15:56:24.406Z,1.65
2019-04-27T15:58:55.835Z,3.17
2019-04-27T16:01:35.637Z,4.33
2019-04-27T16:04:02.433Z,6.08
2019-04-27T16:06:54.296Z,2.42
2019-04-27T16:09:48.773Z,5.12
2019-04-27T16:12:19.195Z,3.00
2019-04-27T16:14:49.737Z,1.92
2019-04-27T16:17:20.058Z,5.80
2019-04-27T16:19:50.608Z,3.87
2019-04-27T16:22:22.643Z,4.55
2019-04-27T16:24:54.724Z,4.47
2019-04-27T16:27:25.894Z,2.00
2019-04-27T16:30:00.365Z,3.33
2019-04-27T16:32:30.118Z,4.35
2019-04-27T16:35:00.496Z,4.03
2019-04-27T16:37:56.376Z,2.37
2019-04-27T16:40:27.121Z,2.87
2019-04-27T16:42:58.473Z,3.40
2019-04-27T16:45:28.815Z,2.20
2019-04-27T16:48:02.097Z,4.90
2019-04-27T16:50:32.500Z,3.60
2019-04-27T16:53:03.051Z,3.27
2019-04-27T16:55:38.992Z,2.40
2019-04-27T16:58:15.821Z,2.55
2019-04-27T17:00:41.442Z,8.30
2019-04-27T17:03:12.240Z,1.65
2019-04-27T17:05:43.012Z,3.02
2019-04-27T17:08:21.605Z,1.52
2019-04-27T17:10:45.654Z,2.72
2019-04-27T17:13:16.251Z,3.65
2019-04-27T17:16:11.374Z,4.28
2019-04-27T17:19:04.819Z,4.70
2019-04-27T17:21:33.403Z,2.17
2019-04-27T17:24:04.010Z,6.33
2019-04-27T17:26:35.515Z,4.65
2019-04-27T17:29:16.275Z,3.60
2019-04-27T17:31:50.529Z,1.90
2019-04-27T17:34:25.159Z,1.95
2019-04-27T17:36:59.035Z,3.92
2019-04-27T17:39:38.883Z,4.20
2019-04-27T17:42:09.284Z,2.98
2019-04-27T17:44:39.679Z,1.40
2019-04-27T17:47:10.662Z,2.90
2019-04-27T17:49:41.439Z,2.12
2019-04-27T17:52:13.117Z,3.25
2019-04-27T17:54:47.540Z,1.25
2019-04-27T17:57:17.896Z,1.52
2019-04-27T17:59:51.258Z,1.52
2019-04-27T18:02:20.963Z,2.60
2019-04-27T18:04:53.143Z,5.05
2019-04-27T18:07:23.561Z,2.25
2019-04-27T18:09:53.916Z,4.90
2019-04-27T18:12:24.268Z,3.72
2019-04-27T18:14:54.599Z,2.70
2019-04-27T18:17:28.756Z,1.82
2019-04-27T18:20:02.789Z,4.78
2019-04-27T18:22:39.673Z,4.17
2019-04-27T18:25:11.151Z,2.22
2019-04-27T18:27:53.236Z,3.85
2019-04-27T18:30:42.613Z,3.22
2019-04-27T18:33:12.878Z,7.03
2019-04-27T18:35:43.231Z,1.35
2019-04-27T18:38:15.536Z,3.02
2019-04-27T18:40:45.983Z,2.37
2019-04-27T18:43:16.193Z,4.30
2019-04-27T18:45:48.486Z,8.03
2019-04-27T18:48:25.561Z,3.50
2019-04-27T18:51:06.070Z,4.75
2019-04-27T18:53:36.615Z,3.27
2019-04-27T18:56:10.098Z,23.75
2019-04-27T18:58:39.125Z,4.08
2019-04-27T19:01:10.243Z,3.12
2019-04-27T19:03:41.035Z,4.92
2019-04-27T19:06:11.274Z,4.90
2019-04-27T19:08:41.692Z,4.35
2019-04-27T19:11:12.016Z,7.30
2019-04-27T19:13:42.205Z,3.20
2019-04-27T19:16:14.829Z,3.92
2019-04-27T19:18:47.716Z,2.95
2019-04-27T19:21:20.015Z,2.50
2019-04-27T19:23:50.419Z,4.45
2019-04-27T19:26:39.418Z,2.47
2019-04-27T19:29:15.990Z,6.87
2019-04-27T19:31:50.117Z,2.20
2019-04-27T19:34:20.817Z,3.05
2019-04-27T19:36:51.571Z,2.35
2019-04-27T19:39:21.852Z,2.08
2019-04-27T19:42:00.458Z,1.52
2019-04-27T19:44:24.414Z,1.37
2019-04-27T19:46:55.172Z,1.30
2019-04-27T19:49:31.258Z,2.05
2019-04-27T19:51:59.952Z,1.95
2019-04-27T19:54:30.430Z,0.98
2019-04-27T19:57:06.254Z,1.72
2019-04-27T19:59:58.843Z,1.50
2019-04-27T20:02:29.224Z,2.22
2019-04-27T20:05:06.116Z,1.25
2019-04-27T20:07:38.036Z,2.00
2019-04-27T20:10:11.002Z,3.00
2019-04-27T20:12:50.939Z,2.10
2019-04-27T20:15:21.983Z,1.77
2019-04-27T20:17:53.368Z,1.85
2019-04-27T20:20:25.353Z,1.10
2019-04-27T20:22:57.985Z,3.47
2019-04-27T20:25:28.537Z,1.67
2019-04-27T20:28:00.894Z,3.00
2019-04-27T20:30:34.158Z,2.45
2019-04-27T20:33:05.210Z,3.35
2019-04-27T20:35:36.043Z,2.47
2019-04-27T20:38:07.016Z,4.30
2019-04-27T20:40:37.707Z,2.98
2019-04-27T20:43:09.026Z,1.95
2019-04-27T20:45:41.311Z,1.82
2019-04-27T20:48:12.135Z,1.95
2019-04-27T20:50:44.270Z,5.45
2019-04-27T20:53:18.045Z,3.87
2019-04-27T20:58:21.686Z,4.00
2019-04-27T21:00:52.203Z,4.37
2019-04-27T21:03:36.291Z,11.05
2019-04-27T21:08:53.648Z,5.65
2019-04-27T21:11:26.446Z,6.28
2019-04-27T21:13:57.127Z,4.08
2019-04-27T21:16:28.674Z,2.22
2019-04-27T21:19:02.009Z,2.58
2019-04-27T21:21:35.300Z,2.30
2019-04-27T21:24:07.749Z,4.47
2019-04-27T21:26:39.298Z,7.00
2019-04-27T21:29:11.570Z,2.47
2019-04-27T21:31:42.523Z,3.92
2019-04-27T21:34:20.031Z,2.92
2019-04-27T21:36:51.125Z,4.87
2019-04-27T21:39:21.811Z,5.17
2019-04-27T21:41:53.629Z,5.60
2019-04-27T21:44:24.008Z,5.90
2019-04-27T21:46:54.342Z,6.17
2019-04-27T21:49:24.684Z,5.10
2019-04-27T21:52:08.812Z,6.55
2019-04-27T21:57:15.857Z,3.73
2019-04-27T22:00:13.570Z,5.35
2019-04-27T22:02:44.225Z,5.40
2019-04-27T22:05:14.934Z,4.83
2019-04-27T22:07:46.146Z,3.12
2019-04-27T22:10:16.871Z,3.58
2019-04-27T22:12:47.981Z,5.00
2019-04-27T22:15:18.619Z,6.85
2019-04-27T22:17:55.167Z,5.28
2019-04-27T22:20:29.108Z,4.37
2019-04-27T22:23:01.749Z,6.35
2019-04-27T22:28:07.651Z,9.53
2019-04-27T22:30:38.953Z,3.77
2019-04-27T22:33:11.190Z,7.30
2019-04-27T22:35:43.284Z,5.35
2019-04-27T22:38:14.072Z,7.92
2019-04-27T22:41:02.772Z,4.78
2019-04-27T22:43:55.657Z,4.87
2019-04-27T22:46:27.515Z,5.15
2019-04-27T22:48:58.234Z,5.92
2019-04-27T22:51:28.452Z,3.95
2019-04-27T22:53:58.859Z,5.80
2019-04-27T22:56:32.116Z,5.17
2019-04-27T22:59:08.544Z,8.08
2019-04-27T23:02:11.442Z,5.95
2019-04-27T23:04:47.640Z,9.33
2019-04-27T23:07:21.313Z,7.30
2019-04-27T23:09:52.288Z,8.70
2019-04-27T23:12:28.899Z,4.80
2019-04-27T23:14:59.304Z,5.80
2019-04-27T23:17:48.528Z,6.42
2019-04-27T23:20:22.646Z,4.25
2019-04-27T23:22:53.452Z,8.10
2019-04-27T23:25:24.279Z,10.38
2019-04-27T23:27:55.684Z,9.75
2019-04-27T23:30:36.610Z,6.90
2019-04-27T23:33:12.983Z,7.35
2019-04-27T23:35:43.974Z,6.22
2019-04-27T23:38:17.282Z,10.08
2019-04-27T23:40:53.155Z,7.45
2019-04-27T23:43:23.755Z,4.05
2019-04-27T23:45:55.389Z,6.70
2019-04-27T23:48:26.256Z,6.53
2019-04-27T23:51:02.222Z,5.00
2019-04-27T23:53:34.356Z,10.18
2019-04-27T23:56:05.795Z,3.70
2019-04-27T23:58:36.359Z,12.93
